createdAt,value
2022-08-05T00:00:06.697Z,25.26
2022-08-05T00:05:09.711Z,23.89
2022-08-05T00:10:32.418Z,23.96
2022-08-05T00:15:54.913Z,24.52
2022-08-05T00:20:58.869Z,24.47
2022-08-05T00:26:01.334Z,24.92
2022-08-05T00:31:07.697Z,23.94
2022-08-05T00:36:16.172Z,23.53
2022-08-05T00:41:51.750Z,23.62
2022-08-05T00:47:02.196Z,23.06
2022-08-05T00:52:08.060Z,23.62
2022-08-05T00:57:10.604Z,23.59
2022-08-05T01:02:14.375Z,24.21
2022-08-05T01:07:19.106Z,22.64
2022-08-05T01:12:23.086Z,23.53
2022-08-05T01:17:30.844Z,23.90
2022-08-05T01:22:57.288Z,24.27
2022-08-05T01:28:16.583Z,23.85
2022-08-05T01:33:25.307Z,23.57
2022-08-05T01:38:30.197Z,24.10
2022-08-05T01:43:34.681Z,24.03
2022-08-05T01:48:40.007Z,24.30
2022-08-05T01:53:57.500Z,24.46
2022-08-05T01:59:05.674Z,24.36
2022-08-05T02:04:11.790Z,24.55
2022-08-05T02:09:14.748Z,24.75
2022-08-05T02:14:24.959Z,24.50
2022-08-05T02:19:34.683Z,24.49
2022-08-05T02:24:39.889Z,24.83
2022-08-05T02:29:58.388Z,24.71
2022-08-05T02:35:13.424Z,24.97
2022-08-05T02:40:18.049Z,25.05
2022-08-05T02:45:23.964Z,24.82
2022-08-05T02:50:28.389Z,24.88
2022-08-05T02:55:54.065Z,24.90
2022-08-05T03:00:58.276Z,24.68
2022-08-05T03:06:53.575Z,24.46
2022-08-05T03:11:54.739Z,24.57
2022-08-05T03:16:49.447Z,24.30
2022-08-05T03:21:55.962Z,24.52
2022-08-05T03:26:59.163Z,24.60
2022-08-05T03:32:04.557Z,24.58
2022-08-05T03:37:11.805Z,24.46
2022-08-05T03:42:16.840Z,24.31
2022-08-05T03:47:20.930Z,24.17
2022-08-05T03:52:36.958Z,24.15
2022-08-05T03:57:54.510Z,24.26
2022-08-05T04:03:01.244Z,24.44
2022-08-05T04:08:29.977Z,24.25
2022-08-05T04:13:49.712Z,24.69
2022-08-05T04:18:54.946Z,23.89
2022-08-05T04:24:06.403Z,23.35
2022-08-05T04:29:11.336Z,23.60
2022-08-05T04:34:18.481Z,23.92
2022-08-05T04:39:35.880Z,23.85
2022-08-05T04:44:38.662Z,24.07
2022-08-05T04:50:02.801Z,24.22
2022-08-05T04:55:14.264Z,24.52
2022-08-05T05:00:18.443Z,24.38
2022-08-05T05:05:28.808Z,24.71
2022-08-05T05:10:33.853Z,24.61
2022-08-05T05:15:56.796Z,24.30
2022-08-05T05:21:00.900Z,24.42
2022-08-05T05:26:03.383Z,24.21
2022-08-05T05:31:08.794Z,24.31
2022-08-05T05:36:12.936Z,24.68
2022-08-05T05:41:17.233Z,24.85
2022-08-05T05:46:21.850Z,24.87
2022-08-05T05:51:27.800Z,24.81
2022-08-05T05:56:34.839Z,24.85
2022-08-05T06:01:40.045Z,24.67
2022-08-05T06:06:47.753Z,24.32
2022-08-05T06:12:01.401Z,24.14
2022-08-05T06:17:22.044Z,24.22
2022-08-05T06:22:30.275Z,24.07
2022-08-05T06:28:10.540Z,23.88
2022-08-05T06:32:59.699Z,24.55
2022-08-05T06:38:10.104Z,25.06
2022-08-05T06:43:58.933Z,24.65
2022-08-05T06:48:56.455Z,24.20
2022-08-05T06:54:02.730Z,24.17
2022-08-05T06:59:09.632Z,24.10
2022-08-05T07:04:14.319Z,24.18
2022-08-05T07:09:25.563Z,24.20
2022-08-05T07:14:53.956Z,24.43
2022-08-05T07:25:54.472Z,24.38
2022-08-05T07:30:43.300Z,24.64
2022-08-05T07:36:01.995Z,24.73
2022-08-05T07:42:09.232Z,24.95
2022-08-05T07:46:34.466Z,25.02
2022-08-05T07:51:48.909Z,25.02
2022-08-05T07:57:02.704Z,25.39
2022-08-05T08:02:26.860Z,25.61
2022-08-05T08:07:39.767Z,25.49
2022-08-05T08:12:58.749Z,25.49
2022-08-05T08:18:01.977Z,25.60
2022-08-05T08:23:11.528Z,25.68
2022-08-05T08:28:37.122Z,25.76
2022-08-05T08:33:45.320Z,25.69
2022-08-05T08:38:53.424Z,26.08
2022-08-05T08:45:18.644Z,26.26
2022-08-05T08:50:12.984Z,26.28
2022-08-05T08:54:48.119Z,27.27
2022-08-05T08:59:52.082Z,27.78
2022-08-05T09:05:16.583Z,27.75
2022-08-05T09:10:21.201Z,27.58
2022-08-05T09:15:31.014Z,27.66
2022-08-05T09:20:37.435Z,27.11
2022-08-05T09:25:59.784Z,26.91
2022-08-05T09:31:22.321Z,27.13
2022-08-05T09:36:54.154Z,27.79
2022-08-05T09:42:01.061Z,28.07
2022-08-05T09:47:12.657Z,28.33
2022-08-05T09:52:24.710Z,28.60
2022-08-05T09:57:35.143Z,28.33
2022-08-05T10:02:42.238Z,28.53
2022-08-05T10:08:10.927Z,28.30
2022-08-05T10:13:44.199Z,28.64
2022-08-05T10:18:51.756Z,29.62
2022-08-05T10:24:00.033Z,30.13
2022-08-05T10:29:03.471Z,29.09
2022-08-05T10:34:08.360Z,32.46
2022-08-05T10:39:25.027Z,35.54
2022-08-05T10:44:38.995Z,35.80
2022-08-05T10:50:31.811Z,34.86
2022-08-05T10:56:03.477Z,37.20
2022-08-05T11:01:02.769Z,38.13
2022-08-05T11:06:15.266Z,39.48
2022-08-05T11:11:44.775Z,36.60
2022-08-05T11:18:00.179Z,35.42
2022-08-05T11:22:57.991Z,37.00
2022-08-05T11:28:39.652Z,37.47
2022-08-05T11:33:54.798Z,37.54
2022-08-05T11:38:59.053Z,37.52
2022-08-05T11:44:08.479Z,36.10
2022-08-05T11:49:14.439Z,36.53
2022-08-05T11:54:33.705Z,37.74
2022-08-05T11:59:50.055Z,38.11
2022-08-05T12:04:59.603Z,38.99
2022-08-05T12:10:09.077Z,36.07
2022-08-05T12:15:20.673Z,36.75
2022-08-05T12:20:41.358Z,36.69
2022-08-05T12:25:52.509Z,36.47
2022-08-05T12:30:57.442Z,35.29
2022-08-05T12:36:01.910Z,34.45
2022-08-05T12:41:12.974Z,33.93
2022-08-05T12:46:29.276Z,33.69
2022-08-05T12:52:13.455Z,33.09
2022-08-05T12:56:59.667Z,32.72
2022-08-05T13:02:07.957Z,32.29
2022-08-05T13:07:31.010Z,32.15
2022-08-05T13:12:57.141Z,31.61
2022-08-05T13:18:00.345Z,31.60
2022-08-05T13:23:07.303Z,32.04
2022-08-05T13:28:12.998Z,33.32
2022-08-05T13:34:23.963Z,33.02
2022-08-05T13:38:42.179Z,32.62
2022-08-05T13:43:54.867Z,32.32
2022-08-05T13:49:00.897Z,32.25
2022-08-05T13:54:03.722Z,32.31
2022-08-05T13:59:20.093Z,31.83
2022-08-05T14:04:41.387Z,32.01
2022-08-05T14:09:46.357Z,32.31
2022-08-05T14:14:51.362Z,32.33
2022-08-05T14:19:56.822Z,32.18
2022-08-05T14:25:06.169Z,31.34
2022-08-05T14:30:23.170Z,31.10
2022-08-05T14:35:37.543Z,31.00
2022-08-05T14:40:51.819Z,31.50
2022-08-05T14:45:55.664Z,31.62
2022-08-05T14:50:58.383Z,32.09
2022-08-05T14:56:03.493Z,31.88
2022-08-05T15:01:15.540Z,31.50
2022-08-05T15:06:19.414Z,30.85
2022-08-05T15:11:51.507Z,30.90
2022-08-05T15:16:54.221Z,31.67
2022-08-05T15:21:59.934Z,32.05
2022-08-05T15:27:03.464Z,29.38
2022-08-05T15:32:07.815Z,27.62
2022-08-05T15:37:14.779Z,26.58
2022-08-05T15:42:54.278Z,25.83
2022-08-05T15:47:43.484Z,25.14
2022-08-05T15:52:53.322Z,23.97
2022-08-05T15:57:57.689Z,23.91
2022-08-05T16:03:01.567Z,24.04
2022-08-05T16:08:05.241Z,23.44
2022-08-05T16:13:07.786Z,23.24
2022-08-05T16:18:12.488Z,23.13
2022-08-05T16:23:16.991Z,23.05
2022-08-05T16:28:19.577Z,22.85
2022-08-05T16:33:23.402Z,22.88
2022-08-05T16:38:29.527Z,22.69
2022-08-05T16:43:33.683Z,22.17
2022-08-05T16:48:39.120Z,22.12
2022-08-05T16:54:06.201Z,22.13
2022-08-05T16:59:08.168Z,22.06
2022-08-05T17:04:12.378Z,21.48
2022-08-05T17:09:17.790Z,21.56
2022-08-05T17:14:22.310Z,21.59
2022-08-05T17:19:42.364Z,21.51
2022-08-05T17:24:57.795Z,21.53
2022-08-05T17:30:02.464Z,21.97
2022-08-05T17:35:08.472Z,21.97
2022-08-05T17:40:17.633Z,22.30
2022-08-05T17:45:22.785Z,22.09
2022-08-05T17:50:33.057Z,21.95
2022-08-05T17:55:39.672Z,21.94
2022-08-05T18:00:47.828Z,21.08
2022-08-05T18:05:55.118Z,21.31
2022-08-05T18:11:04.463Z,21.49
2022-08-05T18:16:09.519Z,21.46
2022-08-05T18:21:21.182Z,21.63
2022-08-05T18:26:29.215Z,21.68
2022-08-05T18:31:32.938Z,21.67
2022-08-05T18:36:39.533Z,21.71
2022-08-05T18:41:55.881Z,21.76
2022-08-05T18:47:04.819Z,21.68
2022-08-05T18:52:33.127Z,21.56
2022-08-05T18:57:43.210Z,21.58
2022-08-05T19:02:53.222Z,21.75
2022-08-05T19:08:00.176Z,21.69
2022-08-05T19:13:02.792Z,21.45
2022-08-05T19:18:10.461Z,21.58
2022-08-05T19:24:05.881Z,21.79
2022-08-05T19:28:42.287Z,21.87
2022-08-05T19:33:48.229Z,21.63
2022-08-05T19:39:03.731Z,21.31
2022-08-05T19:44:13.027Z,21.19
2022-08-05T19:49:17.657Z,21.12
2022-08-05T19:54:31.285Z,21.22
2022-08-05T19:59:55.807Z,21.27
2022-08-05T20:04:58.715Z,21.63
2022-08-05T20:10:04.810Z,21.62
2022-08-05T20:15:14.151Z,21.60
2022-08-05T20:20:16.956Z,21.65
2022-08-05T20:25:23.187Z,21.26
2022-08-05T20:30:27.501Z,21.20
2022-08-05T20:35:31.594Z,21.16
2022-08-05T20:40:45.617Z,21.06
2022-08-05T20:45:56.190Z,21.00
2022-08-05T20:50:59.689Z,21.49
2022-08-05T20:56:12.059Z,21.47
2022-08-05T21:01:14.795Z,21.22
2022-08-05T21:06:27.609Z,21.04
2022-08-05T21:12:07.034Z,21.21
2022-08-05T21:16:55.299Z,21.43
2022-08-05T21:21:57.866Z,21.31
2022-08-05T21:27:01.774Z,20.98
2022-08-05T21:32:04.766Z,20.92
2022-08-05T21:37:08.136Z,21.03
2022-08-05T21:42:30.752Z,20.96
2022-08-05T21:47:56.745Z,21.15
2022-08-05T21:53:04.498Z,21.11
2022-08-05T21:58:20.214Z,21.17
2022-08-05T22:03:48.957Z,21.38
2022-08-05T22:08:51.819Z,21.10
2022-08-05T22:14:19.487Z,20.84
2022-08-05T22:20:00.303Z,20.74
2022-08-05T22:24:59.234Z,20.82
2022-08-05T22:30:03.281Z,20.36
2022-08-05T22:35:07.193Z,19.29
2022-08-05T22:40:10.777Z,19.20
2022-08-05T22:45:20.942Z,20.07
2022-08-05T22:50:27.790Z,20.33
2022-08-05T22:55:37.056Z,20.27
2022-08-05T23:00:54.686Z,20.65
2022-08-05T23:05:59.893Z,20.71
2022-08-05T23:11:03.576Z,20.18
2022-08-05T23:16:07.375Z,20.05
2022-08-05T23:21:10.918Z,19.73
2022-08-05T23:26:19.936Z,19.90
2022-08-05T23:31:25.505Z,19.80
2022-08-05T23:36:38.694Z,19.48
2022-08-05T23:41:48.607Z,19.00
2022-08-05T23:46:52.987Z,18.99
2022-08-05T23:52:12.982Z,18.90
2022-08-05T23:57:18.979Z,19.12
